sensor_id;sensor_type;location;lat;lon;timestamp;P1;durP1;ratioP1;P2;durP2;ratioP2
1479;SDS011;732;51.698;4.886;2023-02-07T00:01:38;16.40;;;7.80;;
1479;SDS011;732;51.698;4.886;2023-02-07T00:04:07;16.70;;;7.80;;
1479;SDS011;732;51.698;4.886;2023-02-07T00:06:35;19.77;;;7.33;;
1479;SDS011;732;51.698;4.886;2023-02-07T00:09:05;14.27;;;6.97;;
1479;SDS011;732;51.698;4.886;2023-02-07T00:11:36;15.83;;;8.40;;
1479;SDS011;732;51.698;4.886;2023-02-07T00:14:08;11.80;;;7.60;;
1479;SDS011;732;51.698;4.886;2023-02-07T00:16:38;21.13;;;7.10;;
1479;SDS011;732;51.698;4.886;2023-02-07T00:19:07;14.63;;;7.10;;
1479;SDS011;732;51.698;4.886;2023-02-07T00:21:36;16.57;;;7.90;;
1479;SDS011;732;51.698;4.886;2023-02-07T00:24:05;17.63;;;8.70;;
1479;SDS011;732;51.698;4.886;2023-02-07T00:26:33;21.27;;;9.30;;
1479;SDS011;732;51.698;4.886;2023-02-07T00:29:02;22.47;;;8.93;;
1479;SDS011;732;51.698;4.886;2023-02-07T00:31:33;21.23;;;8.87;;
1479;SDS011;732;51.698;4.886;2023-02-07T00:34:03;17.80;;;8.70;;
1479;SDS011;732;51.698;4.886;2023-02-07T00:36:34;14.20;;;7.80;;
1479;SDS011;732;51.698;4.886;2023-02-07T00:39:04;15.50;;;7.80;;
1479;SDS011;732;51.698;4.886;2023-02-07T00:41:35;19.47;;;7.93;;
1479;SDS011;732;51.698;4.886;2023-02-07T00:44:04;15.77;;;7.80;;
1479;SDS011;732;51.698;4.886;2023-02-07T00:46:34;17.07;;;8.07;;
1479;SDS011;732;51.698;4.886;2023-02-07T00:49:04;19.20;;;9.00;;
1479;SDS011;732;51.698;4.886;2023-02-07T00:51:33;13.33;;;7.67;;
1479;SDS011;732;51.698;4.886;2023-02-07T00:54:01;17.83;;;8.57;;
1479;SDS011;732;51.698;4.886;2023-02-07T00:56:30;26.00;;;9.00;;
1479;SDS011;732;51.698;4.886;2023-02-07T00:59:00;18.10;;;8.27;;
1479;SDS011;732;51.698;4.886;2023-02-07T01:01:28;25.87;;;8.23;;
1479;SDS011;732;51.698;4.886;2023-02-07T01:03:58;19.73;;;8.97;;
1479;SDS011;732;51.698;4.886;2023-02-07T01:06:27;18.60;;;8.23;;
1479;SDS011;732;51.698;4.886;2023-02-07T01:08:59;17.40;;;9.63;;
1479;SDS011;732;51.698;4.886;2023-02-07T01:11:29;21.23;;;8.40;;
1479;SDS011;732;51.698;4.886;2023-02-07T01:13:58;20.43;;;8.93;;
1479;SDS011;732;51.698;4.886;2023-02-07T01:16:28;18.07;;;9.10;;
1479;SDS011;732;51.698;4.886;2023-02-07T01:19:01;19.40;;;8.77;;
1479;SDS011;732;51.698;4.886;2023-02-07T01:21:32;21.40;;;9.30;;
1479;SDS011;732;51.698;4.886;2023-02-07T01:24:03;17.37;;;9.00;;
1479;SDS011;732;51.698;4.886;2023-02-07T01:26:32;21.77;;;9.20;;
1479;SDS011;732;51.698;4.886;2023-02-07T01:29:02;17.60;;;9.30;;
1479;SDS011;732;51.698;4.886;2023-02-07T01:31:31;16.03;;;8.00;;
1479;SDS011;732;51.698;4.886;2023-02-07T01:34:01;19.07;;;9.40;;
1479;SDS011;732;51.698;4.886;2023-02-07T01:36:31;17.47;;;9.10;;
1479;SDS011;732;51.698;4.886;2023-02-07T01:38:59;19.23;;;9.30;;
1479;SDS011;732;51.698;4.886;2023-02-07T01:41:32;17.63;;;8.80;;
1479;SDS011;732;51.698;4.886;2023-02-07T01:44:01;18.00;;;10.60;;
1479;SDS011;732;51.698;4.886;2023-02-07T01:46:34;26.67;;;10.07;;
1479;SDS011;732;51.698;4.886;2023-02-07T01:49:10;16.90;;;8.50;;
1479;SDS011;732;51.698;4.886;2023-02-07T01:51:41;18.50;;;10.10;;
1479;SDS011;732;51.698;4.886;2023-02-07T01:54:13;19.97;;;9.30;;
1479;SDS011;732;51.698;4.886;2023-02-07T01:56:45;23.17;;;10.60;;
1479;SDS011;732;51.698;4.886;2023-02-07T01:59:19;25.03;;;8.10;;
1479;SDS011;732;51.698;4.886;2023-02-07T02:01:48;20.10;;;8.60;;
1479;SDS011;732;51.698;4.886;2023-02-07T02:04:19;18.23;;;9.00;;
1479;SDS011;732;51.698;4.886;2023-02-07T02:06:48;19.30;;;7.67;;
1479;SDS011;732;51.698;4.886;2023-02-07T02:09:17;14.83;;;8.13;;
1479;SDS011;732;51.698;4.886;2023-02-07T02:11:52;27.00;;;10.23;;
1479;SDS011;732;51.698;4.886;2023-02-07T02:14:57;21.70;;;9.07;;
1479;SDS011;732;51.698;4.886;2023-02-07T02:17:58;27.90;;;8.40;;
1479;SDS011;732;51.698;4.886;2023-02-07T02:21:09;17.07;;;10.00;;
1479;SDS011;732;51.698;4.886;2023-02-07T02:27:15;19.77;;;8.90;;
1479;SDS011;732;51.698;4.886;2023-02-07T02:30:03;15.20;;;7.40;;
1479;SDS011;732;51.698;4.886;2023-02-07T02:36:00;14.83;;;7.67;;
1479;SDS011;732;51.698;4.886;2023-02-07T02:38:42;19.23;;;8.83;;
1479;SDS011;732;51.698;4.886;2023-02-07T02:41:20;17.73;;;7.67;;
1479;SDS011;732;51.698;4.886;2023-02-07T02:43:56;15.13;;;8.00;;
1479;SDS011;732;51.698;4.886;2023-02-07T02:46:31;14.93;;;6.82;;
1479;SDS011;732;51.698;4.886;2023-02-07T02:49:04;14.47;;;7.07;;
1479;SDS011;732;51.698;4.886;2023-02-07T02:51:38;14.93;;;7.50;;
1479;SDS011;732;51.698;4.886;2023-02-07T02:57:04;15.93;;;7.70;;
1479;SDS011;732;51.698;4.886;2023-02-07T03:00:15;24.63;;;7.50;;
1479;SDS011;732;51.698;4.886;2023-02-07T03:03:04;17.90;;;8.53;;
1479;SDS011;732;51.698;4.886;2023-02-07T03:05:55;12.97;;;7.33;;
1479;SDS011;732;51.698;4.886;2023-02-07T03:08:35;16.17;;;7.70;;
1479;SDS011;732;51.698;4.886;2023-02-07T03:11:10;13.43;;;7.07;;
1479;SDS011;732;51.698;4.886;2023-02-07T03:13:47;18.47;;;6.40;;
1479;SDS011;732;51.698;4.886;2023-02-07T03:16:30;20.67;;;7.77;;
1479;SDS011;732;51.698;4.886;2023-02-07T03:19:08;14.93;;;6.93;;
1479;SDS011;732;51.698;4.886;2023-02-07T03:21:43;19.93;;;8.83;;
1479;SDS011;732;51.698;4.886;2023-02-07T03:24:17;22.50;;;8.00;;
1479;SDS011;732;51.698;4.886;2023-02-07T03:26:51;22.73;;;7.83;;
1479;SDS011;732;51.698;4.886;2023-02-07T03:29:23;18.43;;;7.27;;
1479;SDS011;732;51.698;4.886;2023-02-07T03:31:56;15.95;;;6.90;;
1479;SDS011;732;51.698;4.886;2023-02-07T03:34:31;16.60;;;9.40;;
1479;SDS011;732;51.698;4.886;2023-02-07T03:37:07;14.17;;;7.30;;
1479;SDS011;732;51.698;4.886;2023-02-07T03:39:42;18.90;;;7.13;;
1479;SDS011;732;51.698;4.886;2023-02-07T03:42:13;15.45;;;8.25;;
1479;SDS011;732;51.698;4.886;2023-02-07T03:44:48;19.40;;;8.10;;
1479;SDS011;732;51.698;4.886;2023-02-07T03:47:20;14.97;;;8.40;;
1479;SDS011;732;51.698;4.886;2023-02-07T03:49:49;16.07;;;9.00;;
1479;SDS011;732;51.698;4.886;2023-02-07T03:52:19;14.43;;;8.23;;
1479;SDS011;732;51.698;4.886;2023-02-07T03:54:48;18.03;;;7.90;;
1479;SDS011;732;51.698;4.886;2023-02-07T03:57:16;20.47;;;8.83;;
1479;SDS011;732;51.698;4.886;2023-02-07T03:59:45;18.23;;;8.10;;
1479;SDS011;732;51.698;4.886;2023-02-07T04:02:14;18.25;;;8.77;;
1479;SDS011;732;51.698;4.886;2023-02-07T04:04:42;26.97;;;8.60;;
1479;SDS011;732;51.698;4.886;2023-02-07T04:07:11;17.63;;;7.93;;
1479;SDS011;732;51.698;4.886;2023-02-07T04:09:41;13.83;;;8.07;;
1479;SDS011;732;51.698;4.886;2023-02-07T04:12:09;18.13;;;8.43;;
1479;SDS011;732;51.698;4.886;2023-02-07T04:14:38;17.70;;;8.00;;
1479;SDS011;732;51.698;4.886;2023-02-07T04:17:06;21.13;;;8.43;;
1479;SDS011;732;51.698;4.886;2023-02-07T04:19:35;18.60;;;8.77;;
1479;SDS011;732;51.698;4.886;2023-02-07T04:22:03;18.33;;;8.27;;
1479;SDS011;732;51.698;4.886;2023-02-07T04:24:32;23.60;;;8.40;;
1479;SDS011;732;51.698;4.886;2023-02-07T04:27:02;17.87;;;8.50;;
1479;SDS011;732;51.698;4.886;2023-02-07T04:29:31;23.67;;;8.70;;
1479;SDS011;732;51.698;4.886;2023-02-07T04:31:59;25.08;;;9.90;;
1479;SDS011;732;51.698;4.886;2023-02-07T04:34:28;28.10;;;10.67;;
1479;SDS011;732;51.698;4.886;2023-02-07T04:36:57;29.67;;;11.17;;
1479;SDS011;732;51.698;4.886;2023-02-07T04:39:25;34.73;;;12.00;;
1479;SDS011;732;51.698;4.886;2023-02-07T04:41:54;35.90;;;13.67;;
1479;SDS011;732;51.698;4.886;2023-02-07T04:44:24;41.40;;;12.97;;
1479;SDS011;732;51.698;4.886;2023-02-07T04:46:53;34.43;;;14.37;;
1479;SDS011;732;51.698;4.886;2023-02-07T04:49:21;39.33;;;12.47;;
1479;SDS011;732;51.698;4.886;2023-02-07T04:51:50;39.87;;;14.60;;
1479;SDS011;732;51.698;4.886;2023-02-07T04:54:18;46.17;;;16.03;;
1479;SDS011;732;51.698;4.886;2023-02-07T04:56:47;39.40;;;14.87;;
1479;SDS011;732;51.698;4.886;2023-02-07T04:59:15;42.83;;;15.30;;
1479;SDS011;732;51.698;4.886;2023-02-07T05:01:45;46.03;;;14.67;;
1479;SDS011;732;51.698;4.886;2023-02-07T05:04:13;43.97;;;16.47;;
1479;SDS011;732;51.698;4.886;2023-02-07T05:06:42;42.33;;;15.57;;
1479;SDS011;732;51.698;4.886;2023-02-07T05:09:10;48.17;;;18.10;;
1479;SDS011;732;51.698;4.886;2023-02-07T05:11:39;43.03;;;15.90;;
1479;SDS011;732;51.698;4.886;2023-02-07T05:14:07;38.53;;;16.53;;
1479;SDS011;732;51.698;4.886;2023-02-07T05:16:36;42.40;;;15.57;;
1479;SDS011;732;51.698;4.886;2023-02-07T05:19:06;39.83;;;16.87;;
1479;SDS011;732;51.698;4.886;2023-02-07T05:21:34;42.27;;;14.27;;
1479;SDS011;732;51.698;4.886;2023-02-07T05:24:03;39.93;;;15.50;;
1479;SDS011;732;51.698;4.886;2023-02-07T05:26:31;38.27;;;15.00;;
1479;SDS011;732;51.698;4.886;2023-02-07T05:29:00;46.30;;;16.70;;
1479;SDS011;732;51.698;4.886;2023-02-07T05:31:28;52.03;;;17.37;;
1479;SDS011;732;51.698;4.886;2023-02-07T05:34:12;43.00;;;15.23;;
1479;SDS011;732;51.698;4.886;2023-02-07T05:36:40;48.03;;;16.40;;
1479;SDS011;732;51.698;4.886;2023-02-07T05:39:09;55.80;;;18.53;;
1479;SDS011;732;51.698;4.886;2023-02-07T05:41:37;48.93;;;17.70;;
1479;SDS011;732;51.698;4.886;2023-02-07T05:44:06;47.83;;;16.97;;
1479;SDS011;732;51.698;4.886;2023-02-07T05:46:34;58.63;;;17.03;;
1479;SDS011;732;51.698;4.886;2023-02-07T05:49:03;53.20;;;17.80;;
1479;SDS011;732;51.698;4.886;2023-02-07T05:51:32;45.07;;;15.77;;
1479;SDS011;732;51.698;4.886;2023-02-07T05:54:01;52.70;;;15.93;;
1479;SDS011;732;51.698;4.886;2023-02-07T05:56:30;58.33;;;18.87;;
1479;SDS011;732;51.698;4.886;2023-02-07T05:58:58;58.43;;;17.53;;
1479;SDS011;732;51.698;4.886;2023-02-07T06:01:27;50.07;;;16.00;;
1479;SDS011;732;51.698;4.886;2023-02-07T06:03:56;47.13;;;15.70;;
1479;SDS011;732;51.698;4.886;2023-02-07T06:06:25;60.73;;;15.37;;
1479;SDS011;732;51.698;4.886;2023-02-07T06:08:55;56.73;;;17.93;;
1479;SDS011;732;51.698;4.886;2023-02-07T06:11:23;48.60;;;17.37;;
1479;SDS011;732;51.698;4.886;2023-02-07T06:13:52;49.80;;;17.70;;
1479;SDS011;732;51.698;4.886;2023-02-07T06:16:20;70.33;;;17.20;;
1479;SDS011;732;51.698;4.886;2023-02-07T06:18:49;54.90;;;17.60;;
1479;SDS011;732;51.698;4.886;2023-02-07T06:21:18;51.67;;;17.20;;
1479;SDS011;732;51.698;4.886;2023-02-07T06:23:47;53.13;;;17.60;;
1479;SDS011;732;51.698;4.886;2023-02-07T06:26:18;47.60;;;16.47;;
1479;SDS011;732;51.698;4.886;2023-02-07T06:28:47;50.73;;;17.80;;
1479;SDS011;732;51.698;4.886;2023-02-07T06:31:15;55.60;;;16.07;;
1479;SDS011;732;51.698;4.886;2023-02-07T06:33:45;42.30;;;17.00;;
1479;SDS011;732;51.698;4.886;2023-02-07T06:36:13;45.33;;;16.30;;
1479;SDS011;732;51.698;4.886;2023-02-07T06:38:42;47.10;;;16.77;;
1479;SDS011;732;51.698;4.886;2023-02-07T06:41:11;53.23;;;17.60;;
1479;SDS011;732;51.698;4.886;2023-02-07T06:43:41;44.07;;;15.93;;
1479;SDS011;732;51.698;4.886;2023-02-07T06:46:09;49.83;;;16.27;;
1479;SDS011;732;51.698;4.886;2023-02-07T06:48:39;43.80;;;16.30;;
1479;SDS011;732;51.698;4.886;2023-02-07T06:51:07;57.93;;;17.37;;
1479;SDS011;732;51.698;4.886;2023-02-07T06:53:36;49.30;;;16.00;;
1479;SDS011;732;51.698;4.886;2023-02-07T06:56:04;51.93;;;15.40;;
1479;SDS011;732;51.698;4.886;2023-02-07T06:58:33;43.43;;;16.90;;
1479;SDS011;732;51.698;4.886;2023-02-07T07:01:04;43.17;;;14.73;;
1479;SDS011;732;51.698;4.886;2023-02-07T07:03:33;37.33;;;14.00;;
1479;SDS011;732;51.698;4.886;2023-02-07T07:06:01;45.13;;;15.87;;
1479;SDS011;732;51.698;4.886;2023-02-07T07:08:30;40.47;;;15.40;;
1479;SDS011;732;51.698;4.886;2023-02-07T07:10:58;50.80;;;16.70;;
1479;SDS011;732;51.698;4.886;2023-02-07T07:13:27;41.10;;;16.20;;
1479;SDS011;732;51.698;4.886;2023-02-07T07:15:55;70.13;;;16.40;;
1479;SDS011;732;51.698;4.886;2023-02-07T07:18:25;40.17;;;14.87;;
1479;SDS011;732;51.698;4.886;2023-02-07T07:20:54;42.80;;;15.30;;
1479;SDS011;732;51.698;4.886;2023-02-07T07:23:23;35.80;;;15.10;;
1479;SDS011;732;51.698;4.886;2023-02-07T07:25:51;38.37;;;14.57;;
1479;SDS011;732;51.698;4.886;2023-02-07T07:28:20;44.67;;;15.03;;
1479;SDS011;732;51.698;4.886;2023-02-07T07:30:49;37.27;;;14.17;;
1479;SDS011;732;51.698;4.886;2023-02-07T07:33:17;46.50;;;15.10;;
1479;SDS011;732;51.698;4.886;2023-02-07T07:35:47;53.53;;;16.80;;
1479;SDS011;732;51.698;4.886;2023-02-07T07:38:21;43.47;;;15.53;;
1479;SDS011;732;51.698;4.886;2023-02-07T07:40:49;46.07;;;15.27;;
1479;SDS011;732;51.698;4.886;2023-02-07T07:43:18;38.93;;;14.87;;
1479;SDS011;732;51.698;4.886;2023-02-07T07:45:51;34.37;;;13.67;;
1479;SDS011;732;51.698;4.886;2023-02-07T07:48:21;36.37;;;14.93;;
1479;SDS011;732;51.698;4.886;2023-02-07T07:50:53;41.87;;;15.20;;
1479;SDS011;732;51.698;4.886;2023-02-07T07:53:22;39.67;;;13.40;;
1479;SDS011;732;51.698;4.886;2023-02-07T07:55:51;36.87;;;13.73;;
1479;SDS011;732;51.698;4.886;2023-02-07T07:58:22;47.33;;;14.17;;
1479;SDS011;732;51.698;4.886;2023-02-07T08:00:52;27.07;;;12.00;;
1479;SDS011;732;51.698;4.886;2023-02-07T08:03:22;35.80;;;13.13;;
1479;SDS011;732;51.698;4.886;2023-02-07T08:05:50;33.87;;;14.20;;
1479;SDS011;732;51.698;4.886;2023-02-07T08:08:21;42.43;;;13.53;;
1479;SDS011;732;51.698;4.886;2023-02-07T08:10:51;31.83;;;13.67;;
1479;SDS011;732;51.698;4.886;2023-02-07T08:13:20;31.80;;;12.83;;
1479;SDS011;732;51.698;4.886;2023-02-07T08:15:49;29.53;;;12.40;;
1479;SDS011;732;51.698;4.886;2023-02-07T08:18:18;37.80;;;13.67;;
1479;SDS011;732;51.698;4.886;2023-02-07T08:20:47;33.23;;;12.97;;
1479;SDS011;732;51.698;4.886;2023-02-07T08:23:16;30.57;;;13.50;;
1479;SDS011;732;51.698;4.886;2023-02-07T08:25:46;31.73;;;14.60;;
1479;SDS011;732;51.698;4.886;2023-02-07T08:28:15;33.70;;;12.77;;
1479;SDS011;732;51.698;4.886;2023-02-07T08:30:46;31.37;;;12.73;;
1479;SDS011;732;51.698;4.886;2023-02-07T08:33:15;39.03;;;13.23;;
1479;SDS011;732;51.698;4.886;2023-02-07T08:35:45;31.70;;;12.37;;
1479;SDS011;732;51.698;4.886;2023-02-07T08:38:17;28.53;;;12.63;;
1479;SDS011;732;51.698;4.886;2023-02-07T08:40:47;37.27;;;14.50;;
1479;SDS011;732;51.698;4.886;2023-02-07T08:43:16;46.67;;;14.43;;
1479;SDS011;732;51.698;4.886;2023-02-07T08:45:45;31.90;;;14.17;;
1479;SDS011;732;51.698;4.886;2023-02-07T08:48:15;38.17;;;13.43;;
1479;SDS011;732;51.698;4.886;2023-02-07T08:50:44;34.80;;;14.03;;
1479;SDS011;732;51.698;4.886;2023-02-07T08:53:12;36.97;;;14.93;;
1479;SDS011;732;51.698;4.886;2023-02-07T08:55:42;34.73;;;15.10;;
1479;SDS011;732;51.698;4.886;2023-02-07T08:58:12;33.33;;;13.80;;
1479;SDS011;732;51.698;4.886;2023-02-07T09:00:41;35.50;;;13.23;;
1479;SDS011;732;51.698;4.886;2023-02-07T09:03:09;41.57;;;14.83;;
1479;SDS011;732;51.698;4.886;2023-02-07T09:05:39;48.50;;;15.00;;
1479;SDS011;732;51.698;4.886;2023-02-07T09:08:08;40.27;;;14.60;;
1479;SDS011;732;51.698;4.886;2023-02-07T09:10:36;43.70;;;14.80;;
1479;SDS011;732;51.698;4.886;2023-02-07T09:13:06;35.23;;;13.67;;
1479;SDS011;732;51.698;4.886;2023-02-07T09:15:36;37.13;;;14.50;;
1479;SDS011;732;51.698;4.886;2023-02-07T09:18:04;36.07;;;14.40;;
1479;SDS011;732;51.698;4.886;2023-02-07T09:20:33;35.73;;;14.60;;
1479;SDS011;732;51.698;4.886;2023-02-07T09:23:03;38.00;;;14.50;;
1479;SDS011;732;51.698;4.886;2023-02-07T09:25:48;36.80;;;13.67;;
1479;SDS011;732;51.698;4.886;2023-02-07T09:28:19;40.30;;;14.73;;
1479;SDS011;732;51.698;4.886;2023-02-07T09:30:50;30.80;;;13.30;;
1479;SDS011;732;51.698;4.886;2023-02-07T09:33:19;34.90;;;14.07;;
1479;SDS011;732;51.698;4.886;2023-02-07T09:35:49;38.87;;;15.03;;
1479;SDS011;732;51.698;4.886;2023-02-07T09:38:20;29.10;;;12.13;;
1479;SDS011;732;51.698;4.886;2023-02-07T09:40:51;34.87;;;14.93;;
1479;SDS011;732;51.698;4.886;2023-02-07T09:43:26;38.10;;;14.10;;
1479;SDS011;732;51.698;4.886;2023-02-07T09:46:07;29.97;;;14.27;;
1479;SDS011;732;51.698;4.886;2023-02-07T09:48:45;38.10;;;14.13;;
1479;SDS011;732;51.698;4.886;2023-02-07T09:51:19;33.23;;;14.10;;
1479;SDS011;732;51.698;4.886;2023-02-07T09:53:50;32.20;;;14.70;;
1479;SDS011;732;51.698;4.886;2023-02-07T09:56:23;33.83;;;13.97;;
1479;SDS011;732;51.698;4.886;2023-02-07T09:58:56;40.87;;;15.70;;
1479;SDS011;732;51.698;4.886;2023-02-07T10:01:33;42.70;;;15.43;;
1479;SDS011;732;51.698;4.886;2023-02-07T10:04:14;31.80;;;14.50;;
1479;SDS011;732;51.698;4.886;2023-02-07T10:07:02;35.17;;;14.53;;
1479;SDS011;732;51.698;4.886;2023-02-07T10:09:36;34.23;;;14.40;;
1479;SDS011;732;51.698;4.886;2023-02-07T10:12:10;31.20;;;14.90;;
1479;SDS011;732;51.698;4.886;2023-02-07T10:14:58;28.80;;;14.67;;
1479;SDS011;732;51.698;4.886;2023-02-07T10:17:45;29.50;;;13.47;;
1479;SDS011;732;51.698;4.886;2023-02-07T10:20:31;34.33;;;14.90;;
1479;SDS011;732;51.698;4.886;2023-02-07T10:23:14;37.27;;;15.03;;
1479;SDS011;732;51.698;4.886;2023-02-07T10:26:00;31.87;;;14.80;;
1479;SDS011;732;51.698;4.886;2023-02-07T10:29:00;35.30;;;15.20;;
1479;SDS011;732;51.698;4.886;2023-02-07T10:32:00;35.90;;;14.70;;
1479;SDS011;732;51.698;4.886;2023-02-07T10:34:40;29.67;;;14.63;;
1479;SDS011;732;51.698;4.886;2023-02-07T10:37:17;26.27;;;13.80;;
1479;SDS011;732;51.698;4.886;2023-02-07T10:39:50;31.53;;;15.10;;
1479;SDS011;732;51.698;4.886;2023-02-07T10:42:27;28.50;;;13.13;;
1479;SDS011;732;51.698;4.886;2023-02-07T10:44:58;32.50;;;14.97;;
1479;SDS011;732;51.698;4.886;2023-02-07T10:47:28;28.60;;;12.00;;
1479;SDS011;732;51.698;4.886;2023-02-07T10:50:02;28.10;;;13.83;;
1479;SDS011;732;51.698;4.886;2023-02-07T10:52:45;26.53;;;12.33;;
1479;SDS011;732;51.698;4.886;2023-02-07T10:55:17;26.97;;;12.90;;
1479;SDS011;732;51.698;4.886;2023-02-07T10:58:00;30.10;;;13.17;;
1479;SDS011;732;51.698;4.886;2023-02-07T11:00:46;21.70;;;10.87;;
1479;SDS011;732;51.698;4.886;2023-02-07T11:03:17;24.63;;;10.27;;
1479;SDS011;732;51.698;4.886;2023-02-07T11:05:52;18.93;;;8.40;;
1479;SDS011;732;51.698;4.886;2023-02-07T11:08:25;18.30;;;9.77;;
1479;SDS011;732;51.698;4.886;2023-02-07T11:10:55;13.30;;;8.27;;
1479;SDS011;732;51.698;4.886;2023-02-07T11:13:26;12.53;;;7.03;;
1479;SDS011;732;51.698;4.886;2023-02-07T11:15:58;12.03;;;7.23;;
1479;SDS011;732;51.698;4.886;2023-02-07T11:18:35;20.77;;;8.20;;
1479;SDS011;732;51.698;4.886;2023-02-07T11:21:23;12.40;;;7.07;;
1479;SDS011;732;51.698;4.886;2023-02-07T11:23:56;11.30;;;6.87;;
1479;SDS011;732;51.698;4.886;2023-02-07T11:26:28;14.13;;;6.43;;
1479;SDS011;732;51.698;4.886;2023-02-07T11:29:04;10.50;;;6.50;;
1479;SDS011;732;51.698;4.886;2023-02-07T11:31:39;13.33;;;6.93;;
1479;SDS011;732;51.698;4.886;2023-02-07T11:34:26;10.77;;;6.90;;
1479;SDS011;732;51.698;4.886;2023-02-07T11:37:09;13.07;;;6.70;;
1479;SDS011;732;51.698;4.886;2023-02-07T11:39:50;11.13;;;5.60;;
1479;SDS011;732;51.698;4.886;2023-02-07T11:42:22;10.40;;;6.40;;
1479;SDS011;732;51.698;4.886;2023-02-07T11:44:56;11.20;;;6.20;;
1479;SDS011;732;51.698;4.886;2023-02-07T11:47:31;16.43;;;6.43;;
1479;SDS011;732;51.698;4.886;2023-02-07T11:50:03;8.50;;;5.00;;
1479;SDS011;732;51.698;4.886;2023-02-07T11:52:36;9.87;;;6.20;;
1479;SDS011;732;51.698;4.886;2023-02-07T11:55:07;6.60;;;4.80;;
1479;SDS011;732;51.698;4.886;2023-02-07T11:57:49;12.70;;;5.70;;
1479;SDS011;732;51.698;4.886;2023-02-07T12:00:21;7.30;;;5.23;;
1479;SDS011;732;51.698;4.886;2023-02-07T12:02:58;8.20;;;4.77;;
1479;SDS011;732;51.698;4.886;2023-02-07T12:05:31;8.80;;;5.53;;
1479;SDS011;732;51.698;4.886;2023-02-07T12:08:05;11.67;;;5.30;;
1479;SDS011;732;51.698;4.886;2023-02-07T12:10:40;7.53;;;5.20;;
1479;SDS011;732;51.698;4.886;2023-02-07T12:13:13;6.63;;;4.80;;
1479;SDS011;732;51.698;4.886;2023-02-07T12:15:47;7.93;;;4.53;;
1479;SDS011;732;51.698;4.886;2023-02-07T12:18:22;6.33;;;4.43;;
1479;SDS011;732;51.698;4.886;2023-02-07T12:20:57;9.60;;;5.23;;
1479;SDS011;732;51.698;4.886;2023-02-07T12:23:36;9.20;;;5.30;;
1479;SDS011;732;51.698;4.886;2023-02-07T12:26:12;7.60;;;4.97;;
1479;SDS011;732;51.698;4.886;2023-02-07T12:28:50;7.57;;;4.90;;
1479;SDS011;732;51.698;4.886;2023-02-07T12:31:42;7.30;;;4.83;;
1479;SDS011;732;51.698;4.886;2023-02-07T12:34:22;13.43;;;5.23;;
1479;SDS011;732;51.698;4.886;2023-02-07T12:37:02;8.07;;;4.87;;
1479;SDS011;732;51.698;4.886;2023-02-07T12:39:47;11.00;;;4.90;;
1479;SDS011;732;51.698;4.886;2023-02-07T12:42:28;8.77;;;5.20;;
1479;SDS011;732;51.698;4.886;2023-02-07T12:45:05;8.43;;;4.83;;
1479;SDS011;732;51.698;4.886;2023-02-07T12:47:46;6.63;;;5.10;;
1479;SDS011;732;51.698;4.886;2023-02-07T12:50:26;9.70;;;5.00;;
1479;SDS011;732;51.698;4.886;2023-02-07T12:53:16;8.30;;;5.53;;
1479;SDS011;732;51.698;4.886;2023-02-07T12:56:04;8.23;;;5.50;;
1479;SDS011;732;51.698;4.886;2023-02-07T12:58:48;9.53;;;5.37;;
1479;SDS011;732;51.698;4.886;2023-02-07T13:01:28;9.57;;;5.93;;
1479;SDS011;732;51.698;4.886;2023-02-07T13:04:11;8.57;;;5.37;;
1479;SDS011;732;51.698;4.886;2023-02-07T13:07:20;9.10;;;4.67;;
1479;SDS011;732;51.698;4.886;2023-02-07T13:10:08;7.90;;;5.33;;
1479;SDS011;732;51.698;4.886;2023-02-07T13:12:52;9.53;;;4.67;;
1479;SDS011;732;51.698;4.886;2023-02-07T13:15:26;7.57;;;5.60;;
1479;SDS011;732;51.698;4.886;2023-02-07T13:18:09;6.83;;;5.23;;
1479;SDS011;732;51.698;4.886;2023-02-07T13:20:50;7.53;;;5.20;;
1479;SDS011;732;51.698;4.886;2023-02-07T13:23:34;6.80;;;5.67;;
1479;SDS011;732;51.698;4.886;2023-02-07T13:26:08;9.50;;;5.30;;
1479;SDS011;732;51.698;4.886;2023-02-07T13:28:42;8.47;;;5.30;;
1479;SDS011;732;51.698;4.886;2023-02-07T13:31:16;7.10;;;5.20;;
1479;SDS011;732;51.698;4.886;2023-02-07T13:33:47;8.10;;;5.23;;
1479;SDS011;732;51.698;4.886;2023-02-07T13:36:31;11.00;;;5.33;;
1479;SDS011;732;51.698;4.886;2023-02-07T13:39:08;7.80;;;5.47;;
1479;SDS011;732;51.698;4.886;2023-02-07T13:41:51;7.40;;;5.40;;
1479;SDS011;732;51.698;4.886;2023-02-07T13:44:35;7.57;;;5.80;;
1479;SDS011;732;51.698;4.886;2023-02-07T13:47:19;10.93;;;5.60;;
1479;SDS011;732;51.698;4.886;2023-02-07T13:50:12;7.87;;;5.13;;
1479;SDS011;732;51.698;4.886;2023-02-07T13:52:51;11.30;;;5.97;;
1479;SDS011;732;51.698;4.886;2023-02-07T13:55:31;11.93;;;6.30;;
1479;SDS011;732;51.698;4.886;2023-02-07T13:58:03;10.37;;;5.60;;
1479;SDS011;732;51.698;4.886;2023-02-07T14:01:14;9.90;;;6.40;;
1479;SDS011;732;51.698;4.886;2023-02-07T14:03:58;9.87;;;5.93;;
1479;SDS011;732;51.698;4.886;2023-02-07T14:06:30;8.60;;;6.07;;
1479;SDS011;732;51.698;4.886;2023-02-07T14:09:03;8.70;;;6.20;;
1479;SDS011;732;51.698;4.886;2023-02-07T14:11:42;9.00;;;5.77;;
1479;SDS011;732;51.698;4.886;2023-02-07T14:14:15;9.20;;;6.10;;
1479;SDS011;732;51.698;4.886;2023-02-07T14:16:53;9.97;;;5.97;;
1479;SDS011;732;51.698;4.886;2023-02-07T14:22:20;8.77;;;5.97;;
1479;SDS011;732;51.698;4.886;2023-02-07T14:28:16;8.70;;;6.27;;
1479;SDS011;732;51.698;4.886;2023-02-07T14:31:16;10.27;;;6.13;;
1479;SDS011;732;51.698;4.886;2023-02-07T14:36:47;12.23;;;6.73;;
1479;SDS011;732;51.698;4.886;2023-02-07T14:39:26;10.13;;;6.50;;
1479;SDS011;732;51.698;4.886;2023-02-07T14:42:08;10.70;;;5.87;;
1479;SDS011;732;51.698;4.886;2023-02-07T14:44:40;11.03;;;6.30;;
1479;SDS011;732;51.698;4.886;2023-02-07T14:47:15;10.77;;;5.73;;
1479;SDS011;732;51.698;4.886;2023-02-07T14:49:52;10.73;;;6.43;;
1479;SDS011;732;51.698;4.886;2023-02-07T14:52:24;10.67;;;5.83;;
1479;SDS011;732;51.698;4.886;2023-02-07T14:54:56;9.10;;;5.90;;
1479;SDS011;732;51.698;4.886;2023-02-07T14:57:32;7.80;;;5.40;;
1479;SDS011;732;51.698;4.886;2023-02-07T15:00:17;8.13;;;5.67;;
1479;SDS011;732;51.698;4.886;2023-02-07T15:02:54;10.53;;;5.80;;
1479;SDS011;732;51.698;4.886;2023-02-07T15:05:27;11.30;;;6.40;;
1479;SDS011;732;51.698;4.886;2023-02-07T15:08:08;8.13;;;5.90;;
1479;SDS011;732;51.698;4.886;2023-02-07T15:10:44;9.53;;;6.10;;
1479;SDS011;732;51.698;4.886;2023-02-07T15:13:25;9.63;;;6.60;;
1479;SDS011;732;51.698;4.886;2023-02-07T15:15:57;9.57;;;6.70;;
1479;SDS011;732;51.698;4.886;2023-02-07T15:18:31;13.50;;;5.83;;
1479;SDS011;732;51.698;4.886;2023-02-07T15:21:09;11.00;;;6.60;;
1479;SDS011;732;51.698;4.886;2023-02-07T15:23:43;10.13;;;6.03;;
1479;SDS011;732;51.698;4.886;2023-02-07T15:26:18;11.73;;;7.47;;
1479;SDS011;732;51.698;4.886;2023-02-07T15:28:46;10.23;;;6.83;;
1479;SDS011;732;51.698;4.886;2023-02-07T15:31:26;12.63;;;7.20;;
1479;SDS011;732;51.698;4.886;2023-02-07T15:33:56;10.77;;;6.57;;
1479;SDS011;732;51.698;4.886;2023-02-07T15:36:30;12.00;;;6.80;;
1479;SDS011;732;51.698;4.886;2023-02-07T15:39:03;10.30;;;6.17;;
1479;SDS011;732;51.698;4.886;2023-02-07T15:41:34;14.40;;;6.73;;
1479;SDS011;732;51.698;4.886;2023-02-07T15:44:04;15.17;;;7.50;;
1479;SDS011;732;51.698;4.886;2023-02-07T15:46:44;12.93;;;7.30;;
1479;SDS011;732;51.698;4.886;2023-02-07T15:49:25;10.57;;;6.33;;
1479;SDS011;732;51.698;4.886;2023-02-07T15:52:03;12.50;;;6.70;;
1479;SDS011;732;51.698;4.886;2023-02-07T15:54:43;13.23;;;6.93;;
1479;SDS011;732;51.698;4.886;2023-02-07T15:57:17;12.37;;;7.47;;
1479;SDS011;732;51.698;4.886;2023-02-07T15:59:50;14.20;;;6.90;;
1479;SDS011;732;51.698;4.886;2023-02-07T16:02:23;12.20;;;6.33;;
1479;SDS011;732;51.698;4.886;2023-02-07T16:04:55;10.83;;;5.87;;
1479;SDS011;732;51.698;4.886;2023-02-07T16:07:26;14.77;;;7.57;;
1479;SDS011;732;51.698;4.886;2023-02-07T16:09:55;12.07;;;7.77;;
1479;SDS011;732;51.698;4.886;2023-02-07T16:12:41;10.40;;;6.77;;